読者です 読者をやめる 読者になる 読者になる

今朝の成田(2017/04/08)

CPA006/B-LJJ(B748)

VNL100/JA01VA(A320)

JJP12/JA01JJ(A320) アングリバード c/s

CPA524/B-HNQ(B773)

THA640/HS-TUB(A388)

JJP40/JA10JJ(A320)

*JJP501/JA04JJ(A320)

ANA832/JA614A(B763)

*JJP101/JA09JJ(A320)

AMX058/XA-AMR(B788)

JAL724/JA866J(B789)

GTI7133/N407KZ(B744)

*JJP401/JA02JJ(A320)

NCA089/JA17JJ(A320)

ANA814/JA621A(B763) with winglet

ANA179/JA820A(B788)

ANA818/JA808A(B788)

JAL740/JA839J(B788)

JAL752/JA837J(B788)

*JJP301/JA19JJ(A320)

VNL300/JA06VA(A320)

MAS88/9M-MTN(A333)

JAL726/JA868J(B789)

FDX31/N864FD(B77L)

ANA8522/JA8286(B763)

ALK454/4R-ALQ(A333)

SIA638/9V-SWE(B77W)

RJAA 072100Z 05008KT 3200 SHRA BR FEW002 BKN004 BKN013 12/12 Q1015 NOSIG RMK 1ST002 6ST004 7CU013 A2997

RJAA 072200Z 05006KT 2200 -SHRA BR FEW001 BKN003 12/12 Q1014 NOSIG RMK 1ST001 7ST003 A2997

今朝の成田は雨に煙っているようです。